ЦДНГ-5 КН Северная

Карта отелей и гостиниц, располагающихся рядом с аэропортом ЦДНГ-5 КН Северная :

ЦДНГ-5 КН Северная Ханты-Мансийский автономный округ - Югра 62° 22' 12.99" N, 72° 51' 46.17" E
Код аэродрома ИКАО
HJ1X
Код аэродрома RU
ХЙ1Ь
Координаты
N62.37027° E072.86283°
Превышение над уровнем моря
65
Основная полоса
02/20
Курс магнитный
015,2/195,2
Длина основной ВПП
20
Ширина основной ВПП
18
Покрытие основной ВПП
Твёрдое
Освещение ВПП
Нет
Тип: 
Вертодром
Класс аэродрома: 
Принадлежность: 
ГА
Статус: 
Действующий
Сайт: 
E-mail аэродрома: 
Страна: 
Россия
Регион: 
Ханты-Мансийский автономный округ - Югра
Город: 
Дополнительная информация: 
Конитлорское месторождение


Найти трансфер

С помощью этой формы Вы можете найти трансфер из аэропорта ЦДНГ-5 КН Северная в город, аэропорт или вокзал:

Погода в аэропортах:

Авиационная погода в Волгограде

Регион: 
Погода METAR: 
URWW 212300Z 19004MPS 9000 -RA OVC005 11/11 Q1003 R24/290060 TEMPO 1000 TSRAGR BKN020CB RMK OBST OBSC
Время наблюдения
2022-05-21T23:00:00Z
Температура C
11.0
Точка росы
11.0
Направление ветра
190
Скорость ветра (узлы)
8
Метео видимость
5.59
Облачность
OVC
Нижняя граница облачности (футы)
500
Явления погоды
-RA
Условия полета
IFR
Аэропорт подробнее: 
OVC – сплошная облачность;
-RA - слабый дождь;

Авиационная погода в Воронеже

Регион: 
Погода METAR: 
UUOO 212300Z 08004MPS 9999 -SHRA BKN011 BKN///CB 09/08 Q1000 R12/290155 NOSIG RMK QFE736
Время наблюдения
2022-05-21T23:00:00Z
Температура C
9.0
Точка росы
8.0
Направление ветра
80
Скорость ветра (узлы)
8
Метео видимость
6.21
Облачность
BKN
Нижняя граница облачности (футы)
1100
Явления погоды
-SHRA
Условия полета
MVFR
Аэропорт подробнее: 
BKN – значительная (рассеянная, разорванная) облачность;
-SHRA - слабый ливневой дождь;

Авиационная погода в Чимкенте

Регион: 
Погода METAR: 
UAII 212300Z 21006MPS 9999 -SHRA BKN046CB 15/13 Q1012 NOSIG RMK QFE722/0963
Время наблюдения
2022-05-21T23:00:00Z
Температура C
15.0
Точка росы
13.0
Направление ветра
210
Скорость ветра (узлы)
12
Метео видимость
6.21
Облачность
BKN
Нижняя граница облачности (футы)
4600
Явления погоды
-SHRA
Условия полета
VFR
Аэропорт подробнее: 
BKN – значительная (рассеянная, разорванная) облачность;
-SHRA - слабый ливневой дождь;

Авиационная погода в Рощино

Регион: 
Погода METAR: 
USTR 212300Z 17005MPS 9999 -SHRA BKN016CB 09/08 Q0989 R21/290060 R30/////99 TEMPO 2100 -SHRA BR BKN004 BKN016CB
Время наблюдения
2022-05-21T23:00:00Z
Температура C
9.0
Точка росы
8.0
Направление ветра
170
Скорость ветра (узлы)
10
Метео видимость
6.21
Облачность
BKN
Нижняя граница облачности (футы)
1600
Явления погоды
-SHRA
Условия полета
MVFR
Аэропорт подробнее: 
BKN – значительная (рассеянная, разорванная) облачность;
-SHRA - слабый ливневой дождь;